createdAt,value
2022-10-09T00:40:45.967Z,15.40
2022-10-09T00:44:00.583Z,15.30
2022-10-09T00:46:45.511Z,15.20
2022-10-09T00:49:28.327Z,15.10
2022-10-09T00:52:02.100Z,15.00
2022-10-09T00:54:33.886Z,14.90
2022-10-09T00:57:02.283Z,14.90
2022-10-09T00:59:30.426Z,14.90
2022-10-09T01:01:58.059Z,14.90
2022-10-09T01:04:25.894Z,14.90
2022-10-09T01:06:58.910Z,14.90
2022-10-09T01:09:41.058Z,14.90
2022-10-09T01:12:20.245Z,15.00
2022-10-09T01:15:07.786Z,15.00
2022-10-09T01:18:11.902Z,15.10
2022-10-09T01:20:51.131Z,15.10
2022-10-09T01:23:38.300Z,15.10
2022-10-09T01:26:37.670Z,15.10
2022-10-09T01:29:11.765Z,15.10
2022-10-09T01:31:48.599Z,15.10
2022-10-09T01:34:19.397Z,15.10
2022-10-09T01:36:47.953Z,15.10
2022-10-09T01:39:23.722Z,15.20
2022-10-09T01:41:54.342Z,15.20
2022-10-09T01:44:31.461Z,15.10
2022-10-09T01:46:59.930Z,15.00
2022-10-09T01:49:49.771Z,15.00
2022-10-09T01:52:42.669Z,14.90
2022-10-09T01:55:51.497Z,14.80
2022-10-09T01:58:32.805Z,14.80
2022-10-09T02:01:11.115Z,14.80
2022-10-09T02:03:43.202Z,14.70
2022-10-09T02:06:14.755Z,14.70
2022-10-09T02:08:47.045Z,14.70
2022-10-09T02:11:15.170Z,14.70
2022-10-09T02:13:45.012Z,14.70
2022-10-09T02:16:37.757Z,14.70
2022-10-09T02:19:17.224Z,14.70
2022-10-09T02:21:59.798Z,14.70
2022-10-09T02:24:28.644Z,14.70
2022-10-09T02:26:57.898Z,14.70
2022-10-09T02:29:25.758Z,14.60
2022-10-09T02:31:53.112Z,14.60
2022-10-09T02:34:21.115Z,14.50
2022-10-09T02:36:49.073Z,14.50
2022-10-09T02:39:16.901Z,14.50
2022-10-09T02:41:44.079Z,14.50
2022-10-09T02:44:11.442Z,14.50
2022-10-09T02:46:39.035Z,14.50
2022-10-09T02:49:07.902Z,14.50
2022-10-09T02:51:35.150Z,14.50
2022-10-09T02:54:04.881Z,14.50
2022-10-09T02:56:37.949Z,14.50
2022-10-09T02:59:07.017Z,14.50
2022-10-09T03:01:35.302Z,14.40
2022-10-09T03:04:04.210Z,14.40
2022-10-09T03:06:32.087Z,14.30
2022-10-09T03:08:59.655Z,14.20
2022-10-09T03:11:27.524Z,14.20
2022-10-09T03:13:58.363Z,14.10
2022-10-09T03:16:26.800Z,14.00
2022-10-09T03:23:53.721Z,13.70
2022-10-09T03:26:25.689Z,13.70
2022-10-09T03:28:54.774Z,13.70
2022-10-09T03:34:13.172Z,13.70
2022-10-09T03:36:42.253Z,13.70
2022-10-09T03:39:11.561Z,13.70
2022-10-09T03:41:38.966Z,13.60
2022-10-09T03:44:06.893Z,13.60
2022-10-09T03:46:37.354Z,13.50
2022-10-09T03:54:17.489Z,13.40
2022-10-09T04:06:02.308Z,13.20
2022-10-09T05:28:00.371Z,12.30
2022-10-09T05:30:27.818Z,12.30
2022-10-09T05:32:58.942Z,12.30
2022-10-09T05:35:37.219Z,12.30
2022-10-09T05:38:07.191Z,12.40
2022-10-09T05:40:34.277Z,12.40
2022-10-09T05:43:02.574Z,12.40
2022-10-09T05:45:31.460Z,12.40
2022-10-09T05:48:08.804Z,12.50
2022-10-09T05:56:14.430Z,12.60
2022-10-09T05:58:43.734Z,12.70
2022-10-09T06:01:11.391Z,12.80
2022-10-09T06:03:39.022Z,12.90
2022-10-09T06:06:08.979Z,12.90
2022-10-09T06:13:51.149Z,13.00
2022-10-09T06:16:26.724Z,13.10
2022-10-09T06:19:08.104Z,13.10
2022-10-09T06:21:35.966Z,13.20
2022-10-09T06:34:30.786Z,13.40
2022-10-09T06:37:23.412Z,13.50
2022-10-09T06:39:52.827Z,13.50
2022-10-09T06:42:46.293Z,13.60
2022-10-09T06:45:17.657Z,13.50
2022-10-09T06:47:45.086Z,13.60
2022-10-09T06:50:12.163Z,13.60
2022-10-09T06:52:39.698Z,13.60
2022-10-09T06:55:13.433Z,13.60
2022-10-09T07:17:47.452Z,13.60
2022-10-09T07:20:18.272Z,13.50
2022-10-09T07:22:45.600Z,13.50
2022-10-09T07:25:12.752Z,13.50
2022-10-09T07:33:38.731Z,13.40
2022-10-09T07:37:30.104Z,13.60
2022-10-09T07:45:22.362Z,13.90
2022-10-09T07:47:50.004Z,13.90
2022-10-09T07:50:17.077Z,14.00
2022-10-09T08:03:22.286Z,14.10
2022-10-09T08:05:56.666Z,14.30
2022-10-09T08:08:23.871Z,14.40
2022-10-09T08:10:51.682Z,14.50
2022-10-09T08:13:19.049Z,14.70
2022-10-09T08:15:46.204Z,14.70
2022-10-09T08:18:14.025Z,14.70
2022-10-09T08:25:18.717Z,14.70
2022-10-09T08:36:57.956Z,15.40
2022-10-09T08:39:25.639Z,15.70
2022-10-09T08:41:57.654Z,15.90
2022-10-09T08:44:49.691Z,16.00
2022-10-09T08:47:29.991Z,16.30
2022-10-09T08:50:27.642Z,16.40
2022-10-09T08:53:08.512Z,16.50
2022-10-09T08:55:59.428Z,16.50
2022-10-09T08:58:34.480Z,16.60
2022-10-09T09:01:43.334Z,16.80
2022-10-09T09:04:59.328Z,16.80
2022-10-09T09:08:48.507Z,16.90
2022-10-09T09:11:44.046Z,17.00
2022-10-09T09:15:25.440Z,17.20
2022-10-09T09:18:37.639Z,17.20
2022-10-09T09:21:42.570Z,17.20
2022-10-09T09:29:15.814Z,17.40
2022-10-09T09:31:49.574Z,17.30
2022-10-09T09:34:42.053Z,17.40
2022-10-09T09:37:13.339Z,17.30
2022-10-09T09:42:31.158Z,17.30
2022-10-09T09:45:05.650Z,17.20
2022-10-09T09:47:59.902Z,17.20
2022-10-09T09:50:50.412Z,17.30
2022-10-09T09:53:31.781Z,17.50
2022-10-09T09:56:20.137Z,17.60
2022-10-09T09:58:55.285Z,17.60
2022-10-09T10:01:29.550Z,17.60
2022-10-09T10:04:01.242Z,17.60
2022-10-09T10:06:43.526Z,17.60
2022-10-09T10:09:16.818Z,17.60
2022-10-09T10:11:58.622Z,17.60
2022-10-09T10:14:27.418Z,17.80
2022-10-09T10:16:58.902Z,18.00
2022-10-09T10:19:34.992Z,18.20
2022-10-09T10:22:25.000Z,18.50
2022-10-09T10:33:29.611Z,18.70
2022-10-09T10:36:01.428Z,18.50
2022-10-09T10:39:02.295Z,18.50
2022-10-09T10:41:45.155Z,18.60
2022-10-09T10:52:32.560Z,18.50
2022-10-09T10:55:54.823Z,18.40
2022-10-09T10:59:11.780Z,18.40
2022-10-09T11:02:02.750Z,18.30
2022-10-09T11:04:55.401Z,18.50
2022-10-09T11:07:33.815Z,18.80
2022-10-09T11:12:47.752Z,19.00
2022-10-09T11:14:25.757Z,19.10
2022-10-09T11:17:20.121Z,19.10
2022-10-09T11:24:48.781Z,19.00
2022-10-09T11:27:48.829Z,19.00
2022-10-09T11:30:18.389Z,19.20
2022-10-09T11:33:38.469Z,19.70
2022-10-09T11:39:33.150Z,20.50
2022-10-09T11:52:28.946Z,20.60
2022-10-09T12:01:05.073Z,20.20
2022-10-09T12:03:39.482Z,20.40
2022-10-09T12:06:14.746Z,20.70
2022-10-09T12:09:19.495Z,20.80
2022-10-09T12:12:07.314Z,20.80
2022-10-09T12:14:38.845Z,20.90
2022-10-09T12:17:51.713Z,20.90
2022-10-09T12:26:08.776Z,21.60
2022-10-09T12:28:51.281Z,21.80
2022-10-09T12:31:29.720Z,22.00
2022-10-09T12:34:17.548Z,21.90
2022-10-09T12:36:45.458Z,21.90
2022-10-09T12:43:55.734Z,21.80
2022-10-09T12:46:49.955Z,21.80
2022-10-09T12:54:03.384Z,22.30
2022-10-09T12:56:35.827Z,22.60
2022-10-09T12:59:09.438Z,22.80
2022-10-09T13:06:27.111Z,23.00
2022-10-09T13:09:03.197Z,23.20
2022-10-09T13:12:26.284Z,23.00
2022-10-09T13:15:41.503Z,23.10
2022-10-09T13:20:07.238Z,23.40
2022-10-09T13:22:35.945Z,23.00
2022-10-09T13:25:06.572Z,22.70
